Time;durP1;ratioP1;P1;durP2;ratioP2;P2;SDS_P1;SDS_P2;PMS_P1;PMS_P2;Temp;Humidity;BMP_temperature;BMP_pressure;BME280_temperature;BME280_humidity;BME280_pressure;Samples;Min_cycle;Max_cycle;Signal;HPM_P1;HPM_P2
2024/03/25 00:01:39;;;;;;;774.43;735.17;;;5.20;99.90;;;;;;5073311;28;20845;-65
2024/03/25 00:04:04;;;;;;;783.27;743.50;;;5.00;99.90;;;;;;5081330;28;20228;-66
2024/03/25 00:06:33;;;;;;;814.10;771.50;;;5.00;99.90;;;;;;5081664;28;20465;-66
2024/03/25 00:08:59;;;;;;;773.40;733.83;;;5.10;99.90;;;;;;5073094;28;20250;-65
2024/03/25 00:11:26;;;;;;;833.90;789.03;;;5.00;99.90;;;;;;5073218;28;20458;-66
2024/03/25 00:13:52;;;;;;;893.97;840.93;;;5.00;99.90;;;;;;5081694;28;20470;-66
2024/03/25 00:16:18;;;;;;;897.13;843.63;;;5.00;99.90;;;;;;5072893;28;20464;-65
2024/03/25 00:18:45;;;;;;;923.53;866.17;;;5.00;99.90;;;;;;5081418;28;20223;-66
2024/03/25 00:21:12;;;;;;;932.27;872.50;;;5.00;99.90;;;;;;5081264;28;20981;-66
2024/03/25 00:23:38;;;;;;;925.83;867.20;;;5.10;99.90;;;;;;5072880;28;20470;-65
2024/03/25 00:26:05;;;;;;;895.87;843.37;;;5.10;99.90;;;;;;5081196;28;20980;-65
2024/03/25 00:28:31;;;;;;;914.23;856.97;;;5.30;99.90;;;;;;5072336;28;20196;-66
2024/03/25 00:30:57;;;;;;;900.70;846.50;;;5.30;99.90;;;;;;5072572;28;20850;-66
2024/03/25 00:33:24;;;;;;;886.07;832.97;;;5.30;99.90;;;;;;5080850;28;20703;-65
2024/03/25 00:35:52;;;;;;;865.93;816.43;;;5.30;99.90;;;;;;5072748;28;20462;-65
2024/03/25 00:38:19;;;;;;;857.67;808.43;;;5.40;99.90;;;;;;5080386;28;21112;-65
2024/03/25 00:40:46;;;;;;;843.13;795.73;;;5.40;99.90;;;;;;5072724;28;20807;-66
2024/03/25 00:43:12;;;;;;;843.20;795.43;;;5.40;99.90;;;;;;5081060;28;20532;-66
2024/03/25 00:45:38;;;;;;;859.67;809.47;;;5.40;99.90;;;;;;5072254;28;20477;-66
2024/03/25 00:48:05;;;;;;;840.27;792.03;;;5.50;99.90;;;;;;5071664;28;20207;-65
2024/03/25 00:50:32;;;;;;;842.63;793.77;;;5.50;99.90;;;;;;5072723;28;20458;-66
2024/03/25 00:52:59;;;;;;;834.50;786.73;;;5.50;99.90;;;;;;5072570;28;20474;-66
2024/03/25 00:55:26;;;;;;;850.83;801.47;;;5.50;99.90;;;;;;5080651;28;20980;-65
2024/03/25 00:57:51;;;;;;;840.40;791.90;;;5.50;99.90;;;;;;5077411;28;20536;-66
2024/03/25 01:00:19;;;;;;;837.77;790.37;;;5.50;99.90;;;;;;5074876;28;20565;-66
2024/03/25 01:02:45;;;;;;;797.67;754.87;;;5.50;99.90;;;;;;5072366;28;20294;-64
2024/03/25 01:05:12;;;;;;;809.73;765.77;;;5.50;99.90;;;;;;5080267;28;20453;-65
2024/03/25 01:07:38;;;;;;;815.60;770.63;;;5.50;99.90;;;;;;5080198;28;20204;-66
2024/03/25 01:10:07;;;;;;;811.43;765.23;;;5.50;99.90;;;;;;5079228;28;20457;-65
2024/03/25 01:12:33;;;;;;;823.10;775.90;;;5.50;99.90;;;;;;5072745;28;20200;-65
2024/03/25 01:14:59;;;;;;;819.87;773.67;;;5.50;99.90;;;;;;5071848;28;20473;-65
2024/03/25 01:17:25;;;;;;;777.77;735.37;;;5.60;99.90;;;;;;5071878;28;20204;-66
2024/03/25 01:19:52;;;;;;;754.13;715.27;;;5.50;99.90;;;;;;5072054;28;20485;-66
2024/03/25 01:22:18;;;;;;;777.63;735.33;;;5.60;99.90;;;;;;5081177;28;20656;-66
2024/03/25 01:24:44;;;;;;;797.93;754.17;;;5.60;99.90;;;;;;5080067;28;20488;-66
2024/03/25 01:27:12;;;;;;;770.90;729.70;;;5.50;99.90;;;;;;5080141;28;20204;-65
2024/03/25 01:29:38;;;;;;;741.17;702.77;;;5.50;99.90;;;;;;5083682;28;20453;-66
2024/03/25 01:32:05;;;;;;;729.60;693.20;;;5.40;99.90;;;;;;5076696;28;20455;-66
2024/03/25 01:34:32;;;;;;;742.80;706.00;;;5.20;99.90;;;;;;5080324;28;20631;-65
2024/03/25 01:36:57;;;;;;;759.97;721.43;;;5.00;99.90;;;;;;5072341;28;20462;-66
2024/03/25 01:39:25;;;;;;;807.43;763.87;;;4.90;99.90;;;;;;5071347;28;20477;-66
2024/03/25 01:41:50;;;;;;;846.60;799.70;;;4.70;99.90;;;;;;5079933;28;20192;-66
2024/03/25 01:44:19;;;;;;;874.07;825.20;;;4.60;99.90;;;;;;5071915;28;20482;-66
2024/03/25 01:46:45;;;;;;;895.00;843.93;;;4.60;99.90;;;;;;5076338;28;20456;-66
2024/03/25 01:49:12;;;;;;;894.30;843.03;;;4.60;99.90;;;;;;5075512;28;20458;-66
2024/03/25 01:51:39;;;;;;;904.33;851.60;;;4.60;99.90;;;;;;5071918;28;20465;-65
2024/03/25 01:54:07;;;;;;;914.13;860.33;;;4.60;99.90;;;;;;5079243;28;20980;-65
2024/03/25 01:56:34;;;;;;;917.80;862.17;;;4.60;99.90;;;;;;5080428;28;20468;-66
2024/03/25 01:59:02;;;;;;;907.30;852.33;;;4.80;99.90;;;;;;5082497;28;20486;-66
2024/03/25 02:01:30;;;;;;;918.63;860.90;;;4.80;99.90;;;;;;5075812;28;20832;-66
2024/03/25 02:03:57;;;;;;;907.03;851.23;;;4.80;99.90;;;;;;5083927;28;20473;-66
2024/03/25 02:06:27;;;;;;;892.47;838.50;;;4.90;99.90;;;;;;5083884;28;20457;-66
2024/03/25 02:08:55;;;;;;;867.57;816.17;;;5.00;99.90;;;;;;5083529;28;20453;-65
2024/03/25 02:11:23;;;;;;;850.97;801.13;;;5.00;99.90;;;;;;5083690;28;20460;-66
2024/03/25 02:13:50;;;;;;;842.90;794.27;;;5.00;99.90;;;;;;5083772;28;20531;-66
2024/03/25 02:16:16;;;;;;;839.70;790.83;;;5.10;99.90;;;;;;5083926;28;20454;-66
2024/03/25 02:18:44;;;;;;;875.87;824.27;;;5.10;99.90;;;;;;5083463;28;20484;-65
2024/03/25 02:21:10;;;;;;;862.30;810.67;;;5.10;99.90;;;;;;5083527;28;20663;-66
2024/03/25 02:23:39;;;;;;;848.73;798.67;;;5.20;99.90;;;;;;5077861;28;20500;-66
2024/03/25 02:26:06;;;;;;;838.90;788.97;;;5.20;99.90;;;;;;5079844;28;20834;-65
2024/03/25 02:28:33;;;;;;;812.43;764.17;;;5.30;99.90;;;;;;5074607;28;20469;-66
2024/03/25 02:31:00;;;;;;;808.93;762.07;;;5.40;99.90;;;;;;5081325;28;20477;-65
2024/03/25 02:33:26;;;;;;;788.00;742.67;;;5.40;99.90;;;;;;5078347;28;20481;-66
2024/03/25 02:35:53;;;;;;;726.93;689.87;;;5.50;99.90;;;;;;5081457;28;20458;-65
2024/03/25 02:38:19;;;;;;;708.30;672.60;;;5.50;99.90;;;;;;5074321;28;20251;-65
2024/03/25 02:40:46;;;;;;;680.67;646.47;;;5.50;99.90;;;;;;5083378;28;20461;-66
2024/03/25 02:43:14;;;;;;;690.37;655.67;;;5.50;99.90;;;;;;5083251;28;20470;-66
2024/03/25 02:45:41;;;;;;;669.53;636.23;;;5.50;99.90;;;;;;5083172;28;20446;-65
2024/03/25 02:48:07;;;;;;;674.50;641.17;;;5.50;99.90;;;;;;5074487;28;20450;-66
2024/03/25 02:50:34;;;;;;;688.07;654.10;;;5.50;99.90;;;;;;5085486;28;20488;-65
2024/03/25 02:52:59;;;;;;;641.17;611.17;;;5.50;99.90;;;;;;5086650;28;20844;-66
2024/03/25 02:55:26;;;;;;;624.97;595.07;;;5.50;99.90;;;;;;5076302;28;20460;-65
2024/03/25 02:57:52;;;;;;;622.30;593.93;;;5.40;99.90;;;;;;5074284;28;20196;-66
2024/03/25 03:00:20;;;;;;;645.70;615.47;;;5.30;99.90;;;;;;5082862;28;20485;-66
2024/03/25 03:02:46;;;;;;;621.80;592.87;;;5.30;99.90;;;;;;5078974;28;20226;-66
2024/03/25 03:05:13;;;;;;;639.63;609.00;;;5.20;99.90;;;;;;5086232;28;20457;-66
2024/03/25 03:07:39;;;;;;;672.03;638.33;;;5.20;99.90;;;;;;5074177;28;20196;-66
2024/03/25 03:10:06;;;;;;;660.47;628.30;;;5.10;99.90;;;;;;5082359;28;20450;-66
2024/03/25 03:12:32;;;;;;;671.73;638.83;;;5.00;99.90;;;;;;5085238;28;20946;-66
2024/03/25 03:14:59;;;;;;;709.90;673.60;;;4.90;99.90;;;;;;5079866;28;20450;-66
2024/03/25 03:17:26;;;;;;;740.60;700.03;;;4.80;99.90;;;;;;5082631;28;20199;-65
2024/03/25 03:19:53;;;;;;;763.80;721.50;;;4.80;99.90;;;;;;5073798;28;20548;-65
2024/03/25 03:22:18;;;;;;;749.53;708.73;;;4.70;99.90;;;;;;5075132;28;20454;-65
2024/03/25 03:24:45;;;;;;;806.97;761.10;;;4.60;99.90;;;;;;5081558;28;20458;-65
2024/03/25 03:27:11;;;;;;;813.87;766.77;;;4.50;99.90;;;;;;5082289;28;20200;-65
2024/03/25 03:29:38;;;;;;;860.37;808.57;;;4.50;99.90;;;;;;5073830;28;20458;-66
2024/03/25 03:32:04;;;;;;;843.07;793.07;;;4.40;99.90;;;;;;5082548;28;20965;-66
2024/03/25 03:34:32;;;;;;;861.70;810.63;;;4.30;99.90;;;;;;5084495;28;20484;-66
2024/03/25 03:36:58;;;;;;;887.07;832.67;;;4.30;99.90;;;;;;5079708;28;20450;-65
2024/03/25 03:39:25;;;;;;;908.00;850.57;;;4.20;99.90;;;;;;5073421;28;20481;-66
2024/03/25 03:41:51;;;;;;;900.83;841.87;;;4.20;99.90;;;;;;5073819;28;20664;-65
2024/03/25 03:44:18;;;;;;;916.07;854.83;;;4.20;99.90;;;;;;5073562;28;20484;-66
2024/03/25 03:46:43;;;;;;;910.17;850.97;;;4.10;99.90;;;;;;5073620;28;20196;-65
2024/03/25 03:49:10;;;;;;;910.13;850.33;;;4.10;99.90;;;;;;5074385;28;20461;-65
2024/03/25 03:51:37;;;;;;;909.20;850.10;;;4.10;99.90;;;;;;5083293;28;20218;-66
2024/03/25 03:54:04;;;;;;;921.60;859.90;;;4.10;99.90;;;;;;5082526;28;20896;-65
2024/03/25 03:56:30;;;;;;;925.30;861.87;;;4.10;99.90;;;;;;5084738;28;20541;-65
2024/03/25 03:58:57;;;;;;;935.10;870.77;;;4.10;99.90;;;;;;5079499;28;20568;-65
2024/03/25 04:01:22;;;;;;;939.77;870.80;;;4.00;99.90;;;;;;5082290;28;20207;-66
2024/03/25 04:03:49;;;;;;;946.97;877.30;;;4.00;99.90;;;;;;5082129;28;20552;-65
2024/03/25 04:06:15;;;;;;;944.67;876.27;;;4.00;99.90;;;;;;5082718;28;20570;-66
2024/03/25 04:08:43;;;;;;;943.50;872.17;;;3.90;99.90;;;;;;5082924;28;20450;-65
2024/03/25 04:11:10;;;;;;;943.43;874.37;;;4.00;99.90;;;;;;5081727;28;20203;-65
2024/03/25 04:13:37;;;;;;;945.80;874.70;;;3.90;99.90;;;;;;5081295;28;20474;-65
2024/03/25 04:16:04;;;;;;;936.50;865.90;;;3.90;99.90;;;;;;5072914;28;20941;-65
2024/03/25 04:18:31;;;;;;;941.47;869.10;;;3.80;99.90;;;;;;5072966;28;20468;-66
2024/03/25 04:20:58;;;;;;;948.70;875.97;;;3.80;99.90;;;;;;5072756;28;20484;-66
2024/03/25 04:23:25;;;;;;;945.97;873.97;;;3.70;99.90;;;;;;5081210;28;20865;-66
2024/03/25 04:25:52;;;;;;;947.43;872.13;;;3.70;99.90;;;;;;5082475;28;20447;-65
2024/03/25 04:28:20;;;;;;;941.70;867.60;;;3.60;99.90;;;;;;5072838;28;20893;-66
2024/03/25 04:30:51;;;;;;;948.20;872.20;;;3.50;99.90;;;;;;5081177;28;20980;-66
2024/03/25 04:33:18;;;;;;;947.57;870.90;;;3.30;99.90;;;;;;5081904;28;20564;-65
2024/03/25 04:35:45;;;;;;;960.43;881.43;;;3.20;99.90;;;;;;5077513;28;20453;-66
